sensor_id;sensor_type;location;lat;lon;timestamp;temperature;humidity
16635;DHT22;8431;52.458;9.998;2023-03-23T00:01:29;12.20;99.90
16635;DHT22;8431;52.458;9.998;2023-03-23T00:03:57;12.20;99.90
16635;DHT22;8431;52.458;9.998;2023-03-23T00:06:27;12.20;99.90
16635;DHT22;8431;52.458;9.998;2023-03-23T00:08:58;12.20;99.90
16635;DHT22;8431;52.458;9.998;2023-03-23T00:11:32;12.20;99.90
16635;DHT22;8431;52.458;9.998;2023-03-23T00:14:00;12.00;99.90
16635;DHT22;8431;52.458;9.998;2023-03-23T00:16:29;11.90;99.90
16635;DHT22;8431;52.458;9.998;2023-03-23T00:18:59;11.90;99.90
16635;DHT22;8431;52.458;9.998;2023-03-23T00:21:30;11.70;99.90
16635;DHT22;8431;52.458;9.998;2023-03-23T00:24:01;11.60;99.90
16635;DHT22;8431;52.458;9.998;2023-03-23T00:26:29;11.50;99.90
16635;DHT22;8431;52.458;9.998;2023-03-23T00:29:00;11.40;99.90
16635;DHT22;8431;52.458;9.998;2023-03-23T00:31:28;11.30;99.90
16635;DHT22;8431;52.458;9.998;2023-03-23T00:34:01;11.20;99.90
16635;DHT22;8431;52.458;9.998;2023-03-23T00:36:31;11.20;99.90
16635;DHT22;8431;52.458;9.998;2023-03-23T00:39:00;11.20;99.90
16635;DHT22;8431;52.458;9.998;2023-03-23T00:41:28;11.10;99.90
16635;DHT22;8431;52.458;9.998;2023-03-23T00:43:57;11.10;99.90
16635;DHT22;8431;52.458;9.998;2023-03-23T00:46:29;11.00;99.90
16635;DHT22;8431;52.458;9.998;2023-03-23T00:48:57;11.00;99.90
16635;DHT22;8431;52.458;9.998;2023-03-23T00:51:25;11.00;99.90
16635;DHT22;8431;52.458;9.998;2023-03-23T00:53:53;11.00;99.90
16635;DHT22;8431;52.458;9.998;2023-03-23T00:56:20;11.00;99.90
16635;DHT22;8431;52.458;9.998;2023-03-23T00:58:49;11.00;99.90
16635;DHT22;8431;52.458;9.998;2023-03-23T01:01:16;10.90;99.90
16635;DHT22;8431;52.458;9.998;2023-03-23T01:03:43;10.90;99.90
16635;DHT22;8431;52.458;9.998;2023-03-23T01:06:10;10.90;99.90
16635;DHT22;8431;52.458;9.998;2023-03-23T01:08:40;10.90;99.90
16635;DHT22;8431;52.458;9.998;2023-03-23T01:11:13;10.90;99.90
16635;DHT22;8431;52.458;9.998;2023-03-23T01:13:41;10.90;99.90
16635;DHT22;8431;52.458;9.998;2023-03-23T01:16:08;10.90;99.90
16635;DHT22;8431;52.458;9.998;2023-03-23T01:18:35;10.90;99.90
16635;DHT22;8431;52.458;9.998;2023-03-23T01:21:06;10.90;99.90
16635;DHT22;8431;52.458;9.998;2023-03-23T01:23:34;10.90;99.90
16635;DHT22;8431;52.458;9.998;2023-03-23T01:26:05;10.90;99.90
16635;DHT22;8431;52.458;9.998;2023-03-23T01:28:34;10.90;99.90
16635;DHT22;8431;52.458;9.998;2023-03-23T01:31:02;10.90;99.90
16635;DHT22;8431;52.458;9.998;2023-03-23T01:33:30;10.90;99.90
16635;DHT22;8431;52.458;9.998;2023-03-23T01:35:57;10.90;99.90
16635;DHT22;8431;52.458;9.998;2023-03-23T01:38:24;10.90;99.90
16635;DHT22;8431;52.458;9.998;2023-03-23T01:40:51;10.80;99.90
16635;DHT22;8431;52.458;9.998;2023-03-23T01:43:18;10.80;99.90
16635;DHT22;8431;52.458;9.998;2023-03-23T01:45:47;10.90;99.90
16635;DHT22;8431;52.458;9.998;2023-03-23T01:48:18;10.90;99.90
16635;DHT22;8431;52.458;9.998;2023-03-23T01:50:51;10.90;99.90
16635;DHT22;8431;52.458;9.998;2023-03-23T01:53:19;11.00;99.90
16635;DHT22;8431;52.458;9.998;2023-03-23T01:55:47;11.00;99.90
16635;DHT22;8431;52.458;9.998;2023-03-23T01:58:17;11.10;99.90
16635;DHT22;8431;52.458;9.998;2023-03-23T02:00:47;11.10;99.90
16635;DHT22;8431;52.458;9.998;2023-03-23T02:03:15;11.00;99.90
16635;DHT22;8431;52.458;9.998;2023-03-23T02:05:43;11.00;99.90
16635;DHT22;8431;52.458;9.998;2023-03-23T02:08:11;11.00;99.90
16635;DHT22;8431;52.458;9.998;2023-03-23T02:10:39;11.00;99.90
16635;DHT22;8431;52.458;9.998;2023-03-23T02:13:09;11.00;99.90
16635;DHT22;8431;52.458;9.998;2023-03-23T02:15:48;11.00;99.90
16635;DHT22;8431;52.458;9.998;2023-03-23T02:18:33;11.00;99.90
16635;DHT22;8431;52.458;9.998;2023-03-23T02:21:37;10.90;99.90
16635;DHT22;8431;52.458;9.998;2023-03-23T02:27:43;10.90;99.90
16635;DHT22;8431;52.458;9.998;2023-03-23T02:30:28;10.90;99.90
16635;DHT22;8431;52.458;9.998;2023-03-23T02:35:58;10.90;99.90
16635;DHT22;8431;52.458;9.998;2023-03-23T02:38:31;10.90;99.90
16635;DHT22;8431;52.458;9.998;2023-03-23T02:41:01;10.90;99.90
16635;DHT22;8431;52.458;9.998;2023-03-23T02:43:33;10.90;99.90
16635;DHT22;8431;52.458;9.998;2023-03-23T02:46:04;10.90;99.90
16635;DHT22;8431;52.458;9.998;2023-03-23T02:48:33;10.90;99.90
16635;DHT22;8431;52.458;9.998;2023-03-23T02:51:03;10.80;99.90
16635;DHT22;8431;52.458;9.998;2023-03-23T02:53:32;10.90;99.90
16635;DHT22;8431;52.458;9.998;2023-03-23T02:56:00;10.80;99.90
16635;DHT22;8431;52.458;9.998;2023-03-23T02:58:29;10.80;99.90
16635;DHT22;8431;52.458;9.998;2023-03-23T03:00:56;10.80;99.90
16635;DHT22;8431;52.458;9.998;2023-03-23T03:03:27;10.70;99.90
16635;DHT22;8431;52.458;9.998;2023-03-23T03:06:04;10.70;99.90
16635;DHT22;8431;52.458;9.998;2023-03-23T03:08:36;10.70;99.90
16635;DHT22;8431;52.458;9.998;2023-03-23T03:11:13;10.70;99.90
16635;DHT22;8431;52.458;9.998;2023-03-23T03:13:46;10.70;99.90
16635;DHT22;8431;52.458;9.998;2023-03-23T03:16:23;10.70;99.90
16635;DHT22;8431;52.458;9.998;2023-03-23T03:18:54;10.70;99.90
16635;DHT22;8431;52.458;9.998;2023-03-23T03:21:27;10.70;99.90
16635;DHT22;8431;52.458;9.998;2023-03-23T03:23:57;10.70;99.90
16635;DHT22;8431;52.458;9.998;2023-03-23T03:26:28;10.70;99.90
16635;DHT22;8431;52.458;9.998;2023-03-23T03:28:56;10.70;99.90
16635;DHT22;8431;52.458;9.998;2023-03-23T03:31:27;10.70;99.90
16635;DHT22;8431;52.458;9.998;2023-03-23T03:33:54;10.60;99.90
16635;DHT22;8431;52.458;9.998;2023-03-23T03:36:26;10.60;99.90
16635;DHT22;8431;52.458;9.998;2023-03-23T03:39:00;10.60;99.90
16635;DHT22;8431;52.458;9.998;2023-03-23T03:41:29;10.60;99.90
16635;DHT22;8431;52.458;9.998;2023-03-23T03:43:56;10.60;99.90
16635;DHT22;8431;52.458;9.998;2023-03-23T03:46:23;10.50;99.90
16635;DHT22;8431;52.458;9.998;2023-03-23T03:48:52;10.40;99.90
16635;DHT22;8431;52.458;9.998;2023-03-23T03:51:19;10.40;99.90
16635;DHT22;8431;52.458;9.998;2023-03-23T03:53:47;10.40;99.90
16635;DHT22;8431;52.458;9.998;2023-03-23T03:56:15;10.40;99.90
16635;DHT22;8431;52.458;9.998;2023-03-23T03:58:42;10.40;99.90
16635;DHT22;8431;52.458;9.998;2023-03-23T04:01:09;10.40;99.90
16635;DHT22;8431;52.458;9.998;2023-03-23T04:03:37;10.40;99.90
16635;DHT22;8431;52.458;9.998;2023-03-23T04:06:04;10.30;99.90
16635;DHT22;8431;52.458;9.998;2023-03-23T04:08:31;10.30;99.90
16635;DHT22;8431;52.458;9.998;2023-03-23T04:11:00;10.40;99.90
16635;DHT22;8431;52.458;9.998;2023-03-23T04:13:27;10.40;99.90
16635;DHT22;8431;52.458;9.998;2023-03-23T04:15:54;10.40;99.90
16635;DHT22;8431;52.458;9.998;2023-03-23T04:18:21;10.40;99.90
16635;DHT22;8431;52.458;9.998;2023-03-23T04:20:49;10.40;99.90
16635;DHT22;8431;52.458;9.998;2023-03-23T04:23:18;10.40;99.90
16635;DHT22;8431;52.458;9.998;2023-03-23T04:25:47;10.40;99.90
16635;DHT22;8431;52.458;9.998;2023-03-23T04:28:17;10.40;99.90
16635;DHT22;8431;52.458;9.998;2023-03-23T04:30:44;10.40;99.90
16635;DHT22;8431;52.458;9.998;2023-03-23T04:33:11;10.40;99.90
16635;DHT22;8431;52.458;9.998;2023-03-23T04:35:40;10.40;99.90
16635;DHT22;8431;52.458;9.998;2023-03-23T04:38:08;10.40;99.90
16635;DHT22;8431;52.458;9.998;2023-03-23T04:40:36;10.40;99.90
16635;DHT22;8431;52.458;9.998;2023-03-23T04:43:03;10.40;99.90
16635;DHT22;8431;52.458;9.998;2023-03-23T04:45:33;10.40;99.90
16635;DHT22;8431;52.458;9.998;2023-03-23T04:48:03;10.40;99.90
16635;DHT22;8431;52.458;9.998;2023-03-23T04:50:32;10.40;99.90
16635;DHT22;8431;52.458;9.998;2023-03-23T04:53:00;10.40;99.90
16635;DHT22;8431;52.458;9.998;2023-03-23T04:55:30;10.30;99.90
16635;DHT22;8431;52.458;9.998;2023-03-23T04:57:57;10.30;99.90
16635;DHT22;8431;52.458;9.998;2023-03-23T05:00:26;10.30;99.90
16635;DHT22;8431;52.458;9.998;2023-03-23T05:02:56;10.30;99.90
16635;DHT22;8431;52.458;9.998;2023-03-23T05:05:23;10.30;99.90
16635;DHT22;8431;52.458;9.998;2023-03-23T05:07:51;10.30;99.90
16635;DHT22;8431;52.458;9.998;2023-03-23T05:10:19;10.30;99.90
16635;DHT22;8431;52.458;9.998;2023-03-23T05:12:46;10.30;99.90
16635;DHT22;8431;52.458;9.998;2023-03-23T05:15:14;10.30;99.90
16635;DHT22;8431;52.458;9.998;2023-03-23T05:17:42;10.30;99.90
16635;DHT22;8431;52.458;9.998;2023-03-23T05:20:13;10.30;99.90
16635;DHT22;8431;52.458;9.998;2023-03-23T05:22:44;10.30;99.90
16635;DHT22;8431;52.458;9.998;2023-03-23T05:25:13;10.30;99.90
16635;DHT22;8431;52.458;9.998;2023-03-23T05:27:40;10.30;99.90
16635;DHT22;8431;52.458;9.998;2023-03-23T05:30:09;10.30;99.90
16635;DHT22;8431;52.458;9.998;2023-03-23T05:32:37;10.30;99.90
16635;DHT22;8431;52.458;9.998;2023-03-23T05:35:04;10.40;99.90
16635;DHT22;8431;52.458;9.998;2023-03-23T05:37:33;10.30;99.90
16635;DHT22;8431;52.458;9.998;2023-03-23T05:40:00;10.30;99.90
16635;DHT22;8431;52.458;9.998;2023-03-23T05:42:32;10.20;99.90
16635;DHT22;8431;52.458;9.998;2023-03-23T05:44:59;10.30;99.90
16635;DHT22;8431;52.458;9.998;2023-03-23T05:47:27;10.40;99.90
16635;DHT22;8431;52.458;9.998;2023-03-23T05:49:54;10.40;99.90
16635;DHT22;8431;52.458;9.998;2023-03-23T05:52:21;10.40;99.90
16635;DHT22;8431;52.458;9.998;2023-03-23T05:54:51;10.40;99.90
16635;DHT22;8431;52.458;9.998;2023-03-23T05:57:19;10.50;99.90
16635;DHT22;8431;52.458;9.998;2023-03-23T05:59:47;10.50;99.90
16635;DHT22;8431;52.458;9.998;2023-03-23T06:02:14;10.50;99.90
16635;DHT22;8431;52.458;9.998;2023-03-23T06:04:42;10.60;99.90
16635;DHT22;8431;52.458;9.998;2023-03-23T06:07:09;10.70;99.90
16635;DHT22;8431;52.458;9.998;2023-03-23T06:09:39;10.70;99.90
16635;DHT22;8431;52.458;9.998;2023-03-23T06:12:08;10.70;99.90
16635;DHT22;8431;52.458;9.998;2023-03-23T06:14:36;10.70;99.90
16635;DHT22;8431;52.458;9.998;2023-03-23T06:17:04;10.80;99.90
16635;DHT22;8431;52.458;9.998;2023-03-23T06:19:32;10.80;99.90
16635;DHT22;8431;52.458;9.998;2023-03-23T06:21:59;10.90;99.90
16635;DHT22;8431;52.458;9.998;2023-03-23T06:24:27;10.90;99.90
16635;DHT22;8431;52.458;9.998;2023-03-23T06:26:57;11.00;99.90
16635;DHT22;8431;52.458;9.998;2023-03-23T06:29:26;11.00;99.90
16635;DHT22;8431;52.458;9.998;2023-03-23T06:31:56;11.10;99.90
16635;DHT22;8431;52.458;9.998;2023-03-23T06:34:25;11.10;99.90
16635;DHT22;8431;52.458;9.998;2023-03-23T06:36:52;11.10;99.90
16635;DHT22;8431;52.458;9.998;2023-03-23T06:39:19;11.10;99.90
16635;DHT22;8431;52.458;9.998;2023-03-23T06:41:48;11.10;99.90
16635;DHT22;8431;52.458;9.998;2023-03-23T06:44:15;11.20;99.90
16635;DHT22;8431;52.458;9.998;2023-03-23T06:46:43;11.20;99.90
16635;DHT22;8431;52.458;9.998;2023-03-23T06:49:10;11.30;99.90
16635;DHT22;8431;52.458;9.998;2023-03-23T06:51:37;11.30;99.90
16635;DHT22;8431;52.458;9.998;2023-03-23T06:54:04;11.40;99.90
16635;DHT22;8431;52.458;9.998;2023-03-23T06:56:31;11.50;99.90
16635;DHT22;8431;52.458;9.998;2023-03-23T06:58:58;11.60;99.90
16635;DHT22;8431;52.458;9.998;2023-03-23T07:01:25;11.70;99.90
16635;DHT22;8431;52.458;9.998;2023-03-23T07:03:55;11.80;99.90
16635;DHT22;8431;52.458;9.998;2023-03-23T07:06:23;11.70;99.90
16635;DHT22;8431;52.458;9.998;2023-03-23T07:08:50;11.70;99.90
16635;DHT22;8431;52.458;9.998;2023-03-23T07:11:17;11.70;99.90
16635;DHT22;8431;52.458;9.998;2023-03-23T07:13:44;11.60;99.90
16635;DHT22;8431;52.458;9.998;2023-03-23T07:16:11;11.60;99.90
16635;DHT22;8431;52.458;9.998;2023-03-23T07:18:38;11.70;99.90
16635;DHT22;8431;52.458;9.998;2023-03-23T07:21:07;11.70;99.90
16635;DHT22;8431;52.458;9.998;2023-03-23T07:23:34;11.70;99.90
16635;DHT22;8431;52.458;9.998;2023-03-23T07:26:01;11.80;99.90
16635;DHT22;8431;52.458;9.998;2023-03-23T07:28:28;11.90;99.90
16635;DHT22;8431;52.458;9.998;2023-03-23T07:30:55;11.90;99.90
16635;DHT22;8431;52.458;9.998;2023-03-23T07:33:22;12.00;99.90
16635;DHT22;8431;52.458;9.998;2023-03-23T07:35:49;12.00;99.90
16635;DHT22;8431;52.458;9.998;2023-03-23T07:38:18;12.10;99.90
16635;DHT22;8431;52.458;9.998;2023-03-23T07:40:46;12.10;99.90
16635;DHT22;8431;52.458;9.998;2023-03-23T07:43:13;12.20;99.90
16635;DHT22;8431;52.458;9.998;2023-03-23T07:45:40;12.20;99.90
16635;DHT22;8431;52.458;9.998;2023-03-23T07:48:07;12.10;99.90
16635;DHT22;8431;52.458;9.998;2023-03-23T07:50:34;12.20;99.90
16635;DHT22;8431;52.458;9.998;2023-03-23T07:53:03;12.20;99.90
16635;DHT22;8431;52.458;9.998;2023-03-23T07:55:32;12.20;99.90
16635;DHT22;8431;52.458;9.998;2023-03-23T07:57:59;12.30;99.90
16635;DHT22;8431;52.458;9.998;2023-03-23T08:00:26;12.40;99.90
16635;DHT22;8431;52.458;9.998;2023-03-23T08:02:55;12.50;99.90
16635;DHT22;8431;52.458;9.998;2023-03-23T08:05:25;12.70;99.90
16635;DHT22;8431;52.458;9.998;2023-03-23T08:07:54;12.90;99.90
16635;DHT22;8431;52.458;9.998;2023-03-23T08:10:22;13.00;99.90
16635;DHT22;8431;52.458;9.998;2023-03-23T08:12:53;13.10;99.90
16635;DHT22;8431;52.458;9.998;2023-03-23T08:15:21;13.20;99.90
16635;DHT22;8431;52.458;9.998;2023-03-23T08:17:48;13.20;99.90
16635;DHT22;8431;52.458;9.998;2023-03-23T08:20:16;13.20;99.90
16635;DHT22;8431;52.458;9.998;2023-03-23T08:22:45;13.30;99.90
16635;DHT22;8431;52.458;9.998;2023-03-23T08:25:15;13.40;99.90
16635;DHT22;8431;52.458;9.998;2023-03-23T08:27:43;13.40;99.90
16635;DHT22;8431;52.458;9.998;2023-03-23T08:30:14;13.50;99.90
16635;DHT22;8431;52.458;9.998;2023-03-23T08:32:41;13.70;99.90
16635;DHT22;8431;52.458;9.998;2023-03-23T08:35:11;13.90;99.90
16635;DHT22;8431;52.458;9.998;2023-03-23T08:37:39;13.80;99.90
16635;DHT22;8431;52.458;9.998;2023-03-23T08:40:08;13.80;99.90
16635;DHT22;8431;52.458;9.998;2023-03-23T08:42:36;13.80;99.90
16635;DHT22;8431;52.458;9.998;2023-03-23T08:45:04;13.90;99.90
16635;DHT22;8431;52.458;9.998;2023-03-23T08:47:34;13.90;99.90
16635;DHT22;8431;52.458;9.998;2023-03-23T08:50:01;13.90;99.90
16635;DHT22;8431;52.458;9.998;2023-03-23T08:52:31;13.90;99.90
16635;DHT22;8431;52.458;9.998;2023-03-23T08:54:58;14.00;99.90
16635;DHT22;8431;52.458;9.998;2023-03-23T08:57:25;14.10;99.90
16635;DHT22;8431;52.458;9.998;2023-03-23T08:59:52;14.10;99.90
16635;DHT22;8431;52.458;9.998;2023-03-23T09:02:22;14.10;99.90
16635;DHT22;8431;52.458;9.998;2023-03-23T09:04:51;14.10;99.90
16635;DHT22;8431;52.458;9.998;2023-03-23T09:07:18;14.10;99.90
16635;DHT22;8431;52.458;9.998;2023-03-23T09:09:45;14.20;99.90
16635;DHT22;8431;52.458;9.998;2023-03-23T09:12:12;14.10;99.90
16635;DHT22;8431;52.458;9.998;2023-03-23T09:14:39;14.10;99.90
16635;DHT22;8431;52.458;9.998;2023-03-23T09:17:06;14.20;99.90
16635;DHT22;8431;52.458;9.998;2023-03-23T09:19:34;14.10;99.90
16635;DHT22;8431;52.458;9.998;2023-03-23T09:22:03;13.90;99.90
16635;DHT22;8431;52.458;9.998;2023-03-23T09:24:30;13.80;99.90
16635;DHT22;8431;52.458;9.998;2023-03-23T09:26:57;13.80;99.90
16635;DHT22;8431;52.458;9.998;2023-03-23T09:29:25;13.70;99.90
16635;DHT22;8431;52.458;9.998;2023-03-23T09:31:52;13.60;99.90
16635;DHT22;8431;52.458;9.998;2023-03-23T09:34:19;13.70;99.90
16635;DHT22;8431;52.458;9.998;2023-03-23T09:36:47;13.80;99.90
16635;DHT22;8431;52.458;9.998;2023-03-23T09:39:16;13.70;99.90
16635;DHT22;8431;52.458;9.998;2023-03-23T09:42:10;13.70;99.90
16635;DHT22;8431;52.458;9.998;2023-03-23T09:44:50;13.80;99.90
16635;DHT22;8431;52.458;9.998;2023-03-23T09:47:25;13.80;99.90
16635;DHT22;8431;52.458;9.998;2023-03-23T09:49:57;13.80;99.90
16635;DHT22;8431;52.458;9.998;2023-03-23T09:52:32;13.70;99.90
16635;DHT22;8431;52.458;9.998;2023-03-23T09:55:03;13.70;99.90
16635;DHT22;8431;52.458;9.998;2023-03-23T09:57:35;13.60;99.90
16635;DHT22;8431;52.458;9.998;2023-03-23T10:00:11;13.60;99.90
16635;DHT22;8431;52.458;9.998;2023-03-23T10:05:30;13.80;99.90
16635;DHT22;8431;52.458;9.998;2023-03-23T10:07:59;13.90;99.90
16635;DHT22;8431;52.458;9.998;2023-03-23T10:10:43;14.00;99.90
16635;DHT22;8431;52.458;9.998;2023-03-23T10:13:17;14.00;99.90
16635;DHT22;8431;52.458;9.998;2023-03-23T10:15:46;13.90;99.90
16635;DHT22;8431;52.458;9.998;2023-03-23T10:18:18;13.70;99.90
16635;DHT22;8431;52.458;9.998;2023-03-23T10:20:50;13.60;99.90
16635;DHT22;8431;52.458;9.998;2023-03-23T10:23:50;13.50;99.90
16635;DHT22;8431;52.458;9.998;2023-03-23T10:26:36;13.50;99.90
16635;DHT22;8431;52.458;9.998;2023-03-23T10:29:14;13.40;99.90
16635;DHT22;8431;52.458;9.998;2023-03-23T10:31:48;13.40;99.90
16635;DHT22;8431;52.458;9.998;2023-03-23T10:34:20;13.40;99.90
16635;DHT22;8431;52.458;9.998;2023-03-23T10:37:01;13.50;99.90
16635;DHT22;8431;52.458;9.998;2023-03-23T10:39:32;13.70;99.90
16635;DHT22;8431;52.458;9.998;2023-03-23T10:42:02;13.90;99.90
16635;DHT22;8431;52.458;9.998;2023-03-23T10:44:34;13.90;99.90
16635;DHT22;8431;52.458;9.998;2023-03-23T10:47:02;14.00;99.90
16635;DHT22;8431;52.458;9.998;2023-03-23T10:49:36;14.20;99.90
16635;DHT22;8431;52.458;9.998;2023-03-23T10:52:10;14.20;99.90
16635;DHT22;8431;52.458;9.998;2023-03-23T10:54:47;14.20;99.90
16635;DHT22;8431;52.458;9.998;2023-03-23T10:57:22;14.20;99.90
16635;DHT22;8431;52.458;9.998;2023-03-23T10:59:51;14.40;99.90
16635;DHT22;8431;52.458;9.998;2023-03-23T11:02:20;14.40;99.90
16635;DHT22;8431;52.458;9.998;2023-03-23T11:05:00;14.30;99.90
16635;DHT22;8431;52.458;9.998;2023-03-23T11:07:31;14.40;99.90
16635;DHT22;8431;52.458;9.998;2023-03-23T11:10:07;14.40;99.90
16635;DHT22;8431;52.458;9.998;2023-03-23T11:12:36;14.60;99.90
16635;DHT22;8431;52.458;9.998;2023-03-23T11:15:16;14.80;99.90
16635;DHT22;8431;52.458;9.998;2023-03-23T11:17:55;15.10;99.90
16635;DHT22;8431;52.458;9.998;2023-03-23T11:20:25;15.20;99.90
16635;DHT22;8431;52.458;9.998;2023-03-23T11:22:54;15.00;99.90
16635;DHT22;8431;52.458;9.998;2023-03-23T11:25:21;15.00;99.90
16635;DHT22;8431;52.458;9.998;2023-03-23T11:27:50;15.00;99.90
16635;DHT22;8431;52.458;9.998;2023-03-23T11:30:24;15.10;99.90
16635;DHT22;8431;52.458;9.998;2023-03-23T11:32:53;15.10;99.90
16635;DHT22;8431;52.458;9.998;2023-03-23T11:35:26;15.10;99.90
16635;DHT22;8431;52.458;9.998;2023-03-23T11:37:55;15.00;99.90
16635;DHT22;8431;52.458;9.998;2023-03-23T11:40:25;15.00;99.90
16635;DHT22;8431;52.458;9.998;2023-03-23T11:42:59;14.90;99.90
16635;DHT22;8431;52.458;9.998;2023-03-23T11:45:33;14.80;99.90
16635;DHT22;8431;52.458;9.998;2023-03-23T11:48:13;14.90;99.90
16635;DHT22;8431;52.458;9.998;2023-03-23T11:50:49;15.00;99.90
16635;DHT22;8431;52.458;9.998;2023-03-23T11:53:25;15.10;99.90
16635;DHT22;8431;52.458;9.998;2023-03-23T11:56:01;15.10;99.90
16635;DHT22;8431;52.458;9.998;2023-03-23T11:58:32;15.10;99.90
16635;DHT22;8431;52.458;9.998;2023-03-23T12:01:05;15.10;99.90
16635;DHT22;8431;52.458;9.998;2023-03-23T12:03:53;15.00;99.90
16635;DHT22;8431;52.458;9.998;2023-03-23T12:06:31;14.90;99.90
16635;DHT22;8431;52.458;9.998;2023-03-23T12:09:08;14.70;99.90
16635;DHT22;8431;52.458;9.998;2023-03-23T12:11:55;14.90;99.90
16635;DHT22;8431;52.458;9.998;2023-03-23T12:14:31;15.00;99.90
16635;DHT22;8431;52.458;9.998;2023-03-23T12:17:07;15.10;99.90
16635;DHT22;8431;52.458;9.998;2023-03-23T12:19:44;15.10;99.90
16635;DHT22;8431;52.458;9.998;2023-03-23T12:22:22;14.90;99.90
16635;DHT22;8431;52.458;9.998;2023-03-23T12:24:59;14.70;99.90
16635;DHT22;8431;52.458;9.998;2023-03-23T12:27:35;14.20;99.90
16635;DHT22;8431;52.458;9.998;2023-03-23T12:30:22;12.60;99.90
16635;DHT22;8431;52.458;9.998;2023-03-23T12:33:03;11.80;99.90
16635;DHT22;8431;52.458;9.998;2023-03-23T12:35:49;11.50;99.90
16635;DHT22;8431;52.458;9.998;2023-03-23T12:38:30;11.50;99.90
16635;DHT22;8431;52.458;9.998;2023-03-23T12:41:09;11.40;99.90
16635;DHT22;8431;52.458;9.998;2023-03-23T12:43:48;11.30;99.90
16635;DHT22;8431;52.458;9.998;2023-03-23T12:46:37;11.20;99.90
16635;DHT22;8431;52.458;9.998;2023-03-23T12:49:09;11.30;99.90
16635;DHT22;8431;52.458;9.998;2023-03-23T12:51:44;11.30;99.90
16635;DHT22;8431;52.458;9.998;2023-03-23T12:54:18;11.60;99.90
16635;DHT22;8431;52.458;9.998;2023-03-23T12:56:52;11.80;99.90
16635;DHT22;8431;52.458;9.998;2023-03-23T12:59:24;12.00;99.90
16635;DHT22;8431;52.458;9.998;2023-03-23T13:01:57;12.10;99.90
16635;DHT22;8431;52.458;9.998;2023-03-23T13:04:29;12.20;99.90
16635;DHT22;8431;52.458;9.998;2023-03-23T13:07:01;12.20;99.90
16635;DHT22;8431;52.458;9.998;2023-03-23T13:09:35;12.20;99.90
16635;DHT22;8431;52.458;9.998;2023-03-23T13:12:08;12.20;99.90
16635;DHT22;8431;52.458;9.998;2023-03-23T13:14:46;12.40;99.90
16635;DHT22;8431;52.458;9.998;2023-03-23T13:17:28;12.40;99.90
16635;DHT22;8431;52.458;9.998;2023-03-23T13:20:23;12.60;99.90
16635;DHT22;8431;52.458;9.998;2023-03-23T13:23:01;12.60;99.90
16635;DHT22;8431;52.458;9.998;2023-03-23T13:25:45;12.40;99.90
16635;DHT22;8431;52.458;9.998;2023-03-23T13:28:15;12.40;99.90
16635;DHT22;8431;52.458;9.998;2023-03-23T13:30:55;12.50;99.90
16635;DHT22;8431;52.458;9.998;2023-03-23T13:33:29;12.50;99.90
16635;DHT22;8431;52.458;9.998;2023-03-23T13:35:56;12.50;99.90
16635;DHT22;8431;52.458;9.998;2023-03-23T13:38:31;12.30;99.90
16635;DHT22;8431;52.458;9.998;2023-03-23T13:40:58;12.20;99.90
16635;DHT22;8431;52.458;9.998;2023-03-23T13:43:28;12.10;99.90
16635;DHT22;8431;52.458;9.998;2023-03-23T13:46:07;12.00;99.90
16635;DHT22;8431;52.458;9.998;2023-03-23T13:48:48;12.00;99.90
16635;DHT22;8431;52.458;9.998;2023-03-23T13:51:35;11.90;99.90
16635;DHT22;8431;52.458;9.998;2023-03-23T13:54:15;11.90;99.90
16635;DHT22;8431;52.458;9.998;2023-03-23T13:56:53;11.90;99.90
16635;DHT22;8431;52.458;9.998;2023-03-23T13:59:35;11.90;99.90
16635;DHT22;8431;52.458;9.998;2023-03-23T14:02:31;11.80;99.90
16635;DHT22;8431;52.458;9.998;2023-03-23T14:05:32;11.70;99.90
16635;DHT22;8431;52.458;9.998;2023-03-23T14:08:03;11.70;99.90
16635;DHT22;8431;52.458;9.998;2023-03-23T14:10:39;11.60;99.90
16635;DHT22;8431;52.458;9.998;2023-03-23T14:13:21;11.60;99.90
16635;DHT22;8431;52.458;9.998;2023-03-23T14:15:59;11.70;99.90
16635;DHT22;8431;52.458;9.998;2023-03-23T14:18:32;11.90;99.90
16635;DHT22;8431;52.458;9.998;2023-03-23T14:21:01;12.10;99.90
16635;DHT22;8431;52.458;9.998;2023-03-23T14:23:31;12.30;99.90
16635;DHT22;8431;52.458;9.998;2023-03-23T14:26:00;12.40;99.90
16635;DHT22;8431;52.458;9.998;2023-03-23T14:28:36;12.50;99.90
16635;DHT22;8431;52.458;9.998;2023-03-23T14:31:04;12.50;99.90
16635;DHT22;8431;52.458;9.998;2023-03-23T14:33:32;12.50;99.90
16635;DHT22;8431;52.458;9.998;2023-03-23T14:36:00;12.50;99.90
16635;DHT22;8431;52.458;9.998;2023-03-23T14:38:28;12.50;99.90
16635;DHT22;8431;52.458;9.998;2023-03-23T14:41:01;12.50;99.90
16635;DHT22;8431;52.458;9.998;2023-03-23T14:43:29;12.50;99.90
16635;DHT22;8431;52.458;9.998;2023-03-23T14:45:59;12.50;99.90
16635;DHT22;8431;52.458;9.998;2023-03-23T14:48:33;12.50;99.90
16635;DHT22;8431;52.458;9.998;2023-03-23T14:51:04;12.50;99.90
16635;DHT22;8431;52.458;9.998;2023-03-23T14:53:35;12.50;99.90
16635;DHT22;8431;52.458;9.998;2023-03-23T14:56:10;12.70;99.90
16635;DHT22;8431;52.458;9.998;2023-03-23T14:58:44;12.70;99.90
16635;DHT22;8431;52.458;9.998;2023-03-23T15:01:13;12.70;99.90
16635;DHT22;8431;52.458;9.998;2023-03-23T15:03:43;12.80;99.90
16635;DHT22;8431;52.458;9.998;2023-03-23T15:06:15;12.70;99.90
16635;DHT22;8431;52.458;9.998;2023-03-23T15:08:43;12.70;99.90
16635;DHT22;8431;52.458;9.998;2023-03-23T15:11:24;12.50;99.90
16635;DHT22;8431;52.458;9.998;2023-03-23T15:13:56;12.40;99.90
16635;DHT22;8431;52.458;9.998;2023-03-23T15:16:27;12.30;99.90
16635;DHT22;8431;52.458;9.998;2023-03-23T15:18:56;12.30;99.90
16635;DHT22;8431;52.458;9.998;2023-03-23T15:21:29;12.20;99.90
16635;DHT22;8431;52.458;9.998;2023-03-23T15:23:56;12.20;99.90
16635;DHT22;8431;52.458;9.998;2023-03-23T15:26:33;12.30;99.90
16635;DHT22;8431;52.458;9.998;2023-03-23T15:29:20;12.30;99.90
16635;DHT22;8431;52.458;9.998;2023-03-23T15:35:13;12.40;99.90
16635;DHT22;8431;52.458;9.998;2023-03-23T15:37:44;12.30;99.90
16635;DHT22;8431;52.458;9.998;2023-03-23T15:40:15;12.20;99.90
16635;DHT22;8431;52.458;9.998;2023-03-23T15:42:50;12.20;99.90
16635;DHT22;8431;52.458;9.998;2023-03-23T15:45:31;12.20;99.90
16635;DHT22;8431;52.458;9.998;2023-03-23T15:48:10;12.20;99.90
16635;DHT22;8431;52.458;9.998;2023-03-23T15:50:39;12.30;99.90
16635;DHT22;8431;52.458;9.998;2023-03-23T15:53:22;12.40;99.90
16635;DHT22;8431;52.458;9.998;2023-03-23T15:55:50;12.30;99.90
16635;DHT22;8431;52.458;9.998;2023-03-23T15:58:17;12.20;99.90
16635;DHT22;8431;52.458;9.998;2023-03-23T16:00:45;12.30;99.90
16635;DHT22;8431;52.458;9.998;2023-03-23T16:03:18;12.40;99.90
16635;DHT22;8431;52.458;9.998;2023-03-23T16:05:46;12.40;99.90
16635;DHT22;8431;52.458;9.998;2023-03-23T16:08:15;12.60;99.90
16635;DHT22;8431;52.458;9.998;2023-03-23T16:10:42;12.50;99.90
16635;DHT22;8431;52.458;9.998;2023-03-23T16:13:09;12.40;99.90
16635;DHT22;8431;52.458;9.998;2023-03-23T16:15:36;12.30;99.90
16635;DHT22;8431;52.458;9.998;2023-03-23T16:18:03;12.30;99.90
16635;DHT22;8431;52.458;9.998;2023-03-23T16:20:30;12.20;99.90
16635;DHT22;8431;52.458;9.998;2023-03-23T16:22:57;12.10;99.90